Time;durP1;ratioP1;P1;durP2;ratioP2;P2;SDS_P1;SDS_P2;PMS_P1;PMS_P2;Temp;Humidity;BMP_temperature;BMP_pressure;BME280_temperature;BME280_humidity;BME280_pressure;Samples;Min_cycle;Max_cycle;Signal;HPM_P1;HPM_P2
2024/01/18 00:02:38;;;;;;;16.80;11.90;;;;;;;-0.93;84.12;97845.37;216215;1256;61249;-75
2024/01/18 00:07:30;;;;;;;18.40;11.70;;;;;;;-0.90;84.28;97843.04;216206;1253;62020;-75
2024/01/18 00:12:23;;;;;;;19.90;12.80;;;;;;;-0.86;84.66;97838.17;216086;1254;61308;-75
2024/01/18 00:17:16;;;;;;;16.10;10.40;;;;;;;-0.83;84.47;97818.15;216074;1254;61448;-75
2024/01/18 00:22:09;;;;;;;17.70;12.10;;;;;;;-0.79;84.72;97804.45;215758;1256;61329;-75
2024/01/18 00:27:02;;;;;;;21.10;12.50;;;;;;;-0.75;84.72;97796.16;216105;1256;61339;-75
2024/01/18 00:31:55;;;;;;;18.30;11.50;;;;;;;-0.72;85.08;97790.09;216109;1252;61236;-75
2024/01/18 00:36:49;;;;;;;19.20;12.20;;;;;;;-0.68;85.19;97789.45;216297;1254;61322;-75
2024/01/18 00:41:43;;;;;;;17.20;10.90;;;;;;;-0.66;85.11;97787.80;215980;1254;66000;-75
2024/01/18 00:46:35;;;;;;;12.50;8.60;;;;;;;-0.62;85.78;97792.44;216020;1253;61287;-76
2024/01/18 00:51:28;;;;;;;16.60;11.60;;;;;;;-0.57;85.81;97797.61;215899;1253;61228;-74
2024/01/18 00:56:21;;;;;;;13.30;9.60;;;;;;;-0.55;85.63;97791.35;215970;1254;61223;-75
2024/01/18 01:01:14;;;;;;;14.30;9.80;;;;;;;-0.52;86.08;97778.81;215996;1253;61290;-75
2024/01/18 01:06:11;;;;;;;13.40;9.10;;;;;;;-0.48;86.23;97768.65;215989;1254;61336;-75
2024/01/18 01:11:05;;;;;;;15.70;9.90;;;;;;;-0.46;86.25;97770.55;216066;1254;61247;-75
2024/01/18 01:15:57;;;;;;;15.40;9.70;;;;;;;-0.43;86.33;97760.89;216056;1253;74381;-75
2024/01/18 01:26:16;;;;;;;13.70;8.20;;;;;;;-0.39;86.59;97755.16;204390;1263;965739;-74
2024/01/18 01:31:09;;;;;;;13.30;9.40;;;;;;;-0.34;86.73;97758.45;214262;1270;67094;-74
2024/01/18 01:36:02;;;;;;;13.90;8.80;;;;;;;-0.31;87.05;97753.72;214145;1267;157347;-75
2024/01/18 01:40:56;;;;;;;13.70;9.90;;;;;;;-0.29;86.95;97753.05;214158;1268;73080;-76
2024/01/18 01:45:49;;;;;;;13.80;9.70;;;;;;;-0.27;86.82;97754.28;214147;1268;61366;-73
2024/01/18 01:50:42;;;;;;;15.10;9.90;;;;;;;-0.26;87.09;97754.64;214260;1267;61252;-75
2024/01/18 01:55:39;;;;;;;13.60;9.90;;;;;;;-0.25;87.10;97758.06;214281;1268;65973;-74
2024/01/18 02:00:33;;;;;;;14.40;10.10;;;;;;;-0.22;87.14;97746.68;214202;1270;61325;-74
2024/01/18 02:05:27;;;;;;;15.90;9.80;;;;;;;-0.21;87.40;97745.16;214275;1268;72434;-74
2024/01/18 02:10:20;;;;;;;16.00;10.80;;;;;;;-0.19;87.20;97740.25;214151;1268;72738;-75
2024/01/18 02:15:17;;;;;;;17.20;11.70;;;;;;;-0.18;87.14;97739.23;214263;1270;61284;-75
2024/01/18 02:20:11;;;;;;;17.50;10.80;;;;;;;-0.17;87.42;97730.74;214241;1268;65818;-74
2024/01/18 02:25:24;;;;;;;17.00;10.40;;;;;;;-0.17;87.52;97726.66;214095;1268;61164;-74
2024/01/18 02:30:17;;;;;;;17.20;11.10;;;;;;;-0.14;87.74;97722.77;214124;1269;73642;-74
2024/01/18 02:35:10;;;;;;;14.90;10.90;;;;;;;-0.14;87.52;97721.41;214082;1272;61262;-74
2024/01/18 02:40:03;;;;;;;16.90;10.10;;;;;;;-0.14;87.59;97726.67;214150;1268;61272;-74
2024/01/18 02:44:57;;;;;;;15.00;10.50;;;;;;;-0.12;87.72;97731.48;214103;1268;61460;-74
2024/01/18 02:49:51;;;;;;;16.20;12.20;;;;;;;-0.11;87.67;97725.52;214193;1268;61265;-74
2024/01/18 02:54:43;;;;;;;18.80;12.00;;;;;;;-0.11;87.88;97720.59;214066;1268;61329;-74
2024/01/18 02:59:36;;;;;;;16.30;11.00;;;;;;;-0.11;88.09;97722.80;214125;1268;61376;-74
2024/01/18 03:04:29;;;;;;;17.50;10.10;;;;;;;-0.10;88.01;97721.63;214096;1268;61369;-74
2024/01/18 03:09:22;;;;;;;15.30;11.20;;;;;;;-0.08;88.03;97724.71;214145;1272;61282;-74
2024/01/18 03:14:15;;;;;;;14.10;10.10;;;;;;;-0.07;87.94;97728.14;214158;1268;61355;-74
2024/01/18 03:19:07;;;;;;;15.10;10.70;;;;;;;-0.05;88.29;97733.42;214156;1268;61277;-74
2024/01/18 03:24:00;;;;;;;17.20;10.00;;;;;;;-0.04;87.99;97739.75;214146;1268;61370;-75
2024/01/18 03:28:53;;;;;;;15.60;10.70;;;;;;;-0.03;88.04;97734.13;214220;1268;61345;-74
2024/01/18 03:33:46;;;;;;;14.60;10.50;;;;;;;-0.02;88.20;97728.88;214200;1268;61386;-74
2024/01/18 03:38:39;;;;;;;15.80;10.50;;;;;;;-0.03;88.12;97741.80;214260;1268;61273;-74
2024/01/18 03:43:32;;;;;;;16.80;10.60;;;;;;;-0.01;88.16;97750.01;214178;1268;61301;-74
2024/01/18 03:48:40;;;;;;;15.60;10.00;;;;;;;0.01;88.53;97748.31;215503;1260;61237;31
2024/01/18 03:53:33;;;;;;;15.70;11.10;;;;;;;0.03;88.45;97743.23;214259;1267;61386;-74
2024/01/18 03:58:26;;;;;;;15.70;10.30;;;;;;;0.06;88.72;97749.73;214083;1271;61296;-74
2024/01/18 04:03:20;;;;;;;15.30;10.20;;;;;;;0.07;88.55;97767.30;214123;1268;61348;-74
2024/01/18 04:13:32;;;;;;;12.60;9.30;;;;;;;0.12;88.82;97769.21;214859;1264;71116;-74
2024/01/18 04:18:25;;;;;;;14.80;10.10;;;;;;;0.15;88.87;97771.80;214141;1270;61473;-74
2024/01/18 04:23:17;;;;;;;14.40;10.40;;;;;;;0.19;89.23;97772.70;214169;1268;61319;-74
2024/01/18 04:28:10;;;;;;;14.30;10.40;;;;;;;0.21;89.11;97771.71;214098;1268;61300;-74
2024/01/18 04:33:03;;;;;;;14.30;10.20;;;;;;;0.22;88.95;97781.59;214174;1268;61390;-74
2024/01/18 04:37:56;;;;;;;18.10;11.80;;;;;;;0.20;88.88;97783.11;214134;1268;61281;-75
2024/01/18 04:42:49;;;;;;;17.70;12.40;;;;;;;0.20;89.30;97783.45;214153;1268;61469;-75
2024/01/18 04:47:42;;;;;;;16.50;12.20;;;;;;;0.23;89.53;97781.09;214134;1268;61359;-74
2024/01/18 04:52:35;;;;;;;17.60;13.20;;;;;;;0.26;89.35;97788.96;214056;1268;62706;-74
2024/01/18 04:57:28;;;;;;;16.20;12.60;;;;;;;0.26;89.33;97792.88;214163;1268;61308;-75
2024/01/18 05:02:21;;;;;;;20.70;13.40;;;;;;;0.29;89.58;97792.05;214098;1268;61386;-75
2024/01/18 05:07:13;;;;;;;19.20;13.30;;;;;;;0.31;89.84;97797.89;214122;1269;62823;-75
2024/01/18 05:12:07;;;;;;;21.20;15.10;;;;;;;0.33;90.01;97802.33;214137;1268;61377;-74
2024/01/18 05:17:10;;;;;;;19.80;14.10;;;;;;;0.33;89.83;97802.85;214119;1268;61381;-74
2024/01/18 05:22:04;;;;;;;20.10;13.10;;;;;;;0.33;89.59;97805.73;214099;1271;73410;-74
2024/01/18 05:26:57;;;;;;;19.10;14.20;;;;;;;0.34;89.98;97812.05;214129;1268;71544;-74
2024/01/18 05:31:51;;;;;;;23.70;15.70;;;;;;;0.33;89.75;97809.83;214092;1270;61308;-74
2024/01/18 05:36:45;;;;;;;22.70;16.00;;;;;;;0.35;89.85;97822.46;214162;1268;66949;-75
2024/01/18 05:41:38;;;;;;;23.80;16.00;;;;;;;0.35;90.20;97821.94;214135;1268;61343;-75
2024/01/18 05:46:31;;;;;;;23.30;16.00;;;;;;;0.37;90.12;97832.02;214094;1269;61317;-74
2024/01/18 05:51:23;;;;;;;26.00;16.70;;;;;;;0.37;90.21;97837.65;214042;1268;63941;-75
2024/01/18 05:56:16;;;;;;;26.20;15.80;;;;;;;0.38;90.36;97849.08;214133;1268;61320;-75
2024/01/18 06:01:09;;;;;;;22.30;15.00;;;;;;;0.36;89.79;97861.98;214090;1268;61308;-75
2024/01/18 06:06:04;;;;;;;26.00;17.50;;;;;;;0.33;89.98;97862.15;214162;1268;61431;-75
2024/01/18 06:10:57;;;;;;;26.10;17.80;;;;;;;0.33;90.00;97868.95;214049;1268;74657;-75
2024/01/18 06:15:51;;;;;;;28.70;19.20;;;;;;;0.35;90.58;97875.10;214150;1268;61239;-75
2024/01/18 06:20:44;;;;;;;28.50;19.00;;;;;;;0.39;90.40;97886.73;214158;1268;61252;-74
2024/01/18 06:25:37;;;;;;;32.90;21.70;;;;;;;0.38;90.44;97892.70;214127;1271;61477;-74
2024/01/18 06:30:30;;;;;;;29.20;18.60;;;;;;;0.41;90.49;97895.11;214159;1267;61326;-75
2024/01/18 06:35:23;;;;;;;31.80;21.50;;;;;;;0.42;90.32;97893.94;214069;1268;61371;-75
2024/01/18 06:40:17;;;;;;;33.90;21.50;;;;;;;0.43;90.54;97890.20;214128;1268;71486;-75
2024/01/18 06:45:10;;;;;;;27.50;20.10;;;;;;;0.43;90.01;97898.55;214223;1268;61308;-75
2024/01/18 06:50:05;;;;;;;33.70;23.10;;;;;;;0.43;90.37;97910.13;214129;1271;67255;-75
2024/01/18 06:54:58;;;;;;;38.90;25.50;;;;;;;0.46;90.64;97910.34;214255;1268;61258;-75
2024/01/18 06:59:52;;;;;;;47.50;29.60;;;;;;;0.51;90.69;97905.62;214212;1268;61351;-75
2024/01/18 07:04:47;;;;;;;50.00;30.00;;;;;;;0.55;90.94;97909.09;214212;1268;72789;-75
2024/01/18 07:09:40;;;;;;;51.20;32.90;;;;;;;0.58;90.70;97913.90;214191;1268;61323;-75
2024/01/18 07:14:33;;;;;;;56.30;32.70;;;;;;;0.61;90.75;97919.90;214078;1268;61877;-75
2024/01/18 07:19:26;;;;;;;53.50;33.50;;;;;;;0.64;90.58;97924.87;214166;1268;61205;-75
2024/01/18 07:24:20;;;;;;;51.30;30.90;;;;;;;0.68;90.72;97933.27;214083;1269;61295;-75
2024/01/18 07:29:13;;;;;;;55.30;33.90;;;;;;;0.72;90.48;97932.30;214200;1268;70541;-75
2024/01/18 07:34:06;;;;;;;61.90;32.90;;;;;;;0.79;90.72;97941.59;214108;1268;61391;-76
2024/01/18 07:39:02;;;;;;;53.80;34.20;;;;;;;0.85;90.50;97945.92;214160;1268;66170;-75
2024/01/18 07:43:55;;;;;;;60.40;34.90;;;;;;;0.88;90.72;97951.77;214083;1268;61246;-74
2024/01/18 07:48:48;;;;;;;56.80;35.20;;;;;;;0.91;90.71;97959.12;214198;1268;61603;-74
2024/01/18 07:53:40;;;;;;;57.30;35.90;;;;;;;0.97;90.42;97965.84;214071;1268;61380;-75
2024/01/18 07:58:33;;;;;;;66.10;38.20;;;;;;;1.01;90.34;97979.36;214008;1268;61427;-74
2024/01/18 08:03:27;;;;;;;60.90;37.40;;;;;;;1.05;90.31;97984.17;214026;1268;61310;-75
2024/01/18 08:08:20;;;;;;;57.70;35.50;;;;;;;1.08;90.05;97991.73;214428;1267;61421;-75
2024/01/18 08:13:13;;;;;;;55.30;35.80;;;;;;;1.10;89.86;97998.56;214112;1267;61310;-75
2024/01/18 08:18:06;;;;;;;57.50;33.70;;;;;;;1.10;89.82;97993.62;214157;1270;61364;-74
2024/01/18 08:22:59;;;;;;;58.40;34.80;;;;;;;1.11;89.71;97999.42;213978;1268;61349;-74
2024/01/18 08:27:56;;;;;;;51.40;31.00;;;;;;;1.17;89.58;97998.48;214087;1268;65871;-73
2024/01/18 08:32:50;;;;;;;60.10;34.10;;;;;;;1.22;89.39;98008.41;213893;1268;61581;-73
2024/01/18 08:37:43;;;;;;;56.60;32.40;;;;;;;1.24;89.34;98013.56;213908;1268;74445;-73
2024/01/18 08:42:36;;;;;;;57.70;34.00;;;;;;;1.30;89.03;98026.43;213931;1270;72679;-73
2024/01/18 08:47:29;;;;;;;53.00;32.50;;;;;;;1.38;89.21;98038.30;213964;1272;61271;-73
2024/01/18 08:52:22;;;;;;;55.30;32.80;;;;;;;1.46;88.95;98047.08;213953;1268;61363;-72
2024/01/18 08:57:17;;;;;;;55.70;32.40;;;;;;;1.52;88.65;98053.63;214045;1268;61378;-72
2024/01/18 09:02:11;;;;;;;53.50;32.20;;;;;;;1.60;88.37;98063.95;213932;1268;75039;-73
2024/01/18 09:07:15;;;;;;;59.00;33.30;;;;;;;1.72;88.06;98069.36;213974;1268;71402;-72
2024/01/18 09:12:08;;;;;;;58.30;34.30;;;;;;;1.91;87.88;98080.83;214082;1271;61327;-71
2024/01/18 09:17:01;;;;;;;56.10;33.10;;;;;;;2.08;87.92;98087.64;214013;1270;61307;-72
2024/01/18 09:21:54;;;;;;;55.80;32.00;;;;;;;2.08;87.06;98090.70;213920;1270;61300;-71
2024/01/18 09:26:47;;;;;;;55.50;30.60;;;;;;;2.02;87.21;98085.19;213967;1267;61335;-72
2024/01/18 09:31:40;;;;;;;53.00;34.50;;;;;;;1.99;87.19;98092.51;213989;1268;72638;-72
2024/01/18 09:36:35;;;;;;;47.00;30.90;;;;;;;1.92;86.82;98098.59;214131;1268;61395;-72
2024/01/18 09:41:29;;;;;;;45.00;27.90;;;;;;;1.84;87.11;98109.11;214086;1268;61242;-71
2024/01/18 09:46:25;;;;;;;49.50;32.50;;;;;;;1.76;87.06;98109.71;214007;1268;61245;-73
2024/01/18 09:51:21;;;;;;;49.80;29.90;;;;;;;1.73;87.07;98114.97;213807;1268;74841;-72
2024/01/18 09:56:24;;;;;;;48.60;29.70;;;;;;;1.76;86.88;98107.84;213685;1268;72710;-71
2024/01/18 10:01:20;;;;;;;45.80;28.00;;;;;;;1.82;86.90;98100.73;213746;1268;61307;-71
2024/01/18 10:06:13;;;;;;;50.70;29.80;;;;;;;1.88;86.31;98098.73;213982;1268;66802;-72
2024/01/18 10:11:06;;;;;;;51.60;30.00;;;;;;;1.87;86.35;98103.67;214090;1268;61520;-72
2024/01/18 10:16:00;;;;;;;49.40;30.10;;;;;;;1.83;86.64;98107.73;213852;1268;61326;-71
2024/01/18 10:20:53;;;;;;;49.30;29.40;;;;;;;1.83;86.60;98107.39;213951;1270;61361;-72
2024/01/18 10:25:46;;;;;;;51.30;31.10;;;;;;;1.90;85.99;98101.14;213897;1268;61373;-72
2024/01/18 10:30:39;;;;;;;55.40;31.30;;;;;;;2.06;86.15;98104.37;213862;1268;67807;-72
2024/01/18 10:35:33;;;;;;;50.50;30.10;;;;;;;2.16;85.75;98113.84;213955;1268;61397;-72
2024/01/18 10:40:26;;;;;;;50.30;30.30;;;;;;;2.15;85.52;98107.86;213850;1268;73387;-71
2024/01/18 10:45:19;;;;;;;48.00;28.80;;;;;;;2.25;85.36;98110.86;213668;1267;61399;-72
2024/01/18 10:50:12;;;;;;;45.90;28.60;;;;;;;2.34;85.28;98116.05;214076;1267;61245;-72
2024/01/18 10:55:08;;;;;;;50.10;28.50;;;;;;;2.38;84.85;98136.41;214054;1267;61383;-72
2024/01/18 11:00:01;;;;;;;45.90;28.80;;;;;;;2.29;84.71;98152.60;214118;1268;61283;-73
2024/01/18 11:04:55;;;;;;;51.20;28.80;;;;;;;2.24;84.79;98168.61;214091;1271;61299;-72
2024/01/18 11:09:48;;;;;;;43.00;26.60;;;;;;;2.25;84.62;98184.02;214033;1267;71805;-73
2024/01/18 11:14:43;;;;;;;45.90;27.20;;;;;;;2.17;84.30;98197.95;213989;1268;61287;-72
2024/01/18 11:19:46;;;;;;;47.30;28.40;;;;;;;2.08;84.24;98207.25;214032;1268;65789;-72
2024/01/18 11:24:39;;;;;;;49.30;28.60;;;;;;;2.14;84.22;98213.98;214024;1268;61240;-74
2024/01/18 11:29:58;;;;;;;47.00;29.20;;;;;;;2.13;84.22;98213.98;213989;1268;73858;-72
2024/01/18 11:35:06;;;;;;;52.40;30.20;;;;;;;2.08;84.08;98215.98;214043;1268;72570;-71
2024/01/18 11:39:59;;;;;;;50.10;31.20;;;;;;;2.20;83.40;98204.13;214162;1268;61275;-70
2024/01/18 11:44:56;;;;;;;54.50;30.40;;;;;;;2.34;83.74;98203.41;214044;1268;67007;-71
2024/01/18 11:49:49;;;;;;;50.90;30.70;;;;;;;2.31;83.22;98203.04;214047;1273;61304;-71
2024/01/18 11:54:44;;;;;;;56.90;32.60;;;;;;;2.20;83.51;98218.48;214010;1267;72546;-71
2024/01/18 11:59:36;;;;;;;54.40;33.00;;;;;;;2.12;83.26;98223.86;214020;1268;72418;-73
2024/01/18 12:04:29;;;;;;;47.10;30.40;;;;;;;1.98;82.94;98222.70;214030;1268;61274;-71
2024/01/18 12:09:22;;;;;;;49.30;30.30;;;;;;;1.88;83.03;98224.45;213854;1268;61306;-73
2024/01/18 12:14:15;;;;;;;49.80;28.40;;;;;;;1.77;82.83;98235.61;214045;1271;61268;-73
2024/01/18 12:19:11;;;;;;;49.90;30.00;;;;;;;1.69;82.89;98252.91;214037;1268;61313;-72
2024/01/18 12:24:04;;;;;;;51.00;28.90;;;;;;;1.58;82.86;98259.77;214023;1268;72656;-71
2024/01/18 12:28:59;;;;;;;51.00;30.50;;;;;;;1.49;82.86;98260.67;213907;1268;61280;-72
2024/01/18 12:33:54;;;;;;;56.90;32.30;;;;;;;1.38;83.05;98260.19;213952;1268;66096;-72
2024/01/18 12:38:47;;;;;;;55.20;33.20;;;;;;;1.31;82.95;98256.85;214012;1268;61354;-72
2024/01/18 12:43:40;;;;;;;58.30;33.10;;;;;;;1.31;82.93;98251.39;213954;1268;61268;-72
2024/01/18 12:48:32;;;;;;;56.60;34.00;;;;;;;1.25;82.58;98253.67;213953;1272;61348;-74
2024/01/18 12:53:25;;;;;;;61.10;34.50;;;;;;;1.11;82.84;98266.61;213967;1271;61427;-72
2024/01/18 12:58:19;;;;;;;58.20;33.60;;;;;;;1.04;83.19;98263.77;214065;1268;61334;-72
2024/01/18 13:03:16;;;;;;;63.20;35.10;;;;;;;0.98;82.86;98273.57;213751;1268;61552;-73
2024/01/18 13:08:10;;;;;;;;;;;;;;;0.95;83.09;98275.92;214184;1268;74672;-72
2024/01/18 13:13:06;;;;;;;56.60;33.30;;;;;;;1.00;82.92;98277.35;214064;1268;72576;-72
2024/01/18 13:18:02;;;;;;;52.20;33.20;;;;;;;1.08;82.70;98278.00;213926;1268;61724;-71
2024/01/18 13:22:55;;;;;;;57.40;35.60;;;;;;;1.13;82.93;98290.20;213933;1268;65956;-72
2024/01/18 13:27:48;;;;;;;53.80;33.20;;;;;;;1.14;82.77;98298.74;213955;1268;61364;-71
2024/01/18 13:32:41;;;;;;;51.90;33.20;;;;;;;1.11;82.91;98302.27;213910;1269;61299;-72
2024/01/18 13:37:34;;;;;;;54.80;35.20;;;;;;;1.11;82.77;98315.92;213747;1271;311217;-73
2024/01/18 13:42:27;;;;;;;53.10;32.10;;;;;;;1.13;82.47;98341.55;213775;1268;61380;-71
2024/01/18 13:47:21;;;;;;;58.40;35.20;;;;;;;1.09;82.73;98343.19;213834;1268;61383;-72
2024/01/18 13:52:17;;;;;;;54.60;34.90;;;;;;;1.08;82.40;98342.48;213684;1268;61249;-71
2024/01/18 13:57:10;;;;;;;60.40;33.80;;;;;;;1.06;82.46;98353.89;213885;1268;74789;-72
2024/01/18 14:02:04;;;;;;;60.50;35.30;;;;;;;1.06;82.56;98367.03;213840;1268;71473;-72
2024/01/18 14:06:56;;;;;;;48.40;32.40;;;;;;;1.05;82.24;98376.23;213867;1268;61336;-72
2024/01/18 14:11:49;;;;;;;55.20;33.10;;;;;;;1.03;82.31;98387.09;213856;1271;61873;-72
2024/01/18 14:16:42;;;;;;;56.20;34.80;;;;;;;0.99;82.42;98384.13;213945;1268;61387;-72
2024/01/18 14:21:35;;;;;;;57.00;33.30;;;;;;;0.95;82.48;98403.00;213882;1268;61285;-72
2024/01/18 14:26:28;;;;;;;54.50;33.60;;;;;;;0.90;82.71;98415.86;213844;1273;61332;-72
2024/01/18 14:31:21;;;;;;;63.20;37.50;;;;;;;0.84;82.84;98414.22;213925;1268;61300;-71
2024/01/18 14:36:14;;;;;;;59.90;36.50;;;;;;;0.76;82.44;98401.27;213965;1272;61407;-72
2024/01/18 14:41:07;;;;;;;57.70;35.70;;;;;;;0.68;82.36;98408.63;213975;1268;61282;-72
2024/01/18 14:46:00;;;;;;;57.70;35.10;;;;;;;0.62;82.71;98431.04;213880;1271;61290;-71
2024/01/18 14:50:53;;;;;;;55.00;33.80;;;;;;;0.60;83.03;98452.11;213812;1268;61603;-71
2024/01/18 14:55:46;;;;;;;57.30;35.20;;;;;;;0.56;83.20;98486.30;213853;1268;61299;-71
2024/01/18 15:00:40;;;;;;;58.70;34.00;;;;;;;0.53;83.11;98480.80;213889;1268;61160;-71
2024/01/18 15:05:34;;;;;;;57.90;36.00;;;;;;;0.48;82.79;98474.20;213919;1268;62758;-71
2024/01/18 15:10:28;;;;;;;61.70;36.60;;;;;;;0.44;82.80;98472.41;213904;1272;74424;-71
2024/01/18 15:15:20;;;;;;;62.10;36.50;;;;;;;0.41;82.78;98492.28;213885;1272;71431;-71
2024/01/18 15:20:14;;;;;;;69.00;39.50;;;;;;;0.38;83.03;98491.02;213817;1269;61364;-72
2024/01/18 15:25:09;;;;;;;60.70;35.40;;;;;;;0.35;83.19;98496.60;213889;1268;67399;-71
2024/01/18 15:30:04;;;;;;;60.10;34.60;;;;;;;0.33;83.10;98505.58;213836;1268;61333;-71
2024/01/18 15:34:57;;;;;;;59.10;34.60;;;;;;;0.30;83.21;98531.23;213846;1268;73843;-71
2024/01/18 15:39:50;;;;;;;59.40;35.30;;;;;;;0.29;83.22;98518.27;213834;1268;61262;-71
2024/01/18 15:44:42;;;;;;;63.00;37.90;;;;;;;0.27;83.31;98512.77;213858;1272;61268;-70
2024/01/18 15:49:35;;;;;;;72.50;41.80;;;;;;;0.25;83.32;98511.04;213857;1268;61313;-70
2024/01/18 15:54:28;;;;;;;65.50;40.40;;;;;;;0.25;83.32;98518.54;213931;1268;61271;-71
2024/01/18 15:59:21;;;;;;;66.10;38.70;;;;;;;0.23;83.26;98517.63;214080;1268;61245;-71
2024/01/18 16:04:14;;;;;;;63.90;38.10;;;;;;;0.20;83.39;98539.03;214004;1268;61291;-72
2024/01/18 16:09:07;;;;;;;66.30;40.00;;;;;;;0.19;83.23;98539.85;214055;1268;61328;-72
2024/01/18 16:14:00;;;;;;;62.10;36.70;;;;;;;0.15;83.29;98553.91;214118;1268;61391;-72
2024/01/18 16:18:53;;;;;;;72.60;42.10;;;;;;;0.14;83.23;98561.04;213952;1268;61791;-72
2024/01/18 16:23:45;;;;;;;67.90;41.10;;;;;;;0.13;83.33;98559.84;213977;1268;61249;-71
2024/01/18 16:28:38;;;;;;;69.30;41.00;;;;;;;0.12;83.32;98562.70;213788;1272;61321;-71
2024/01/18 16:33:31;;;;;;;71.70;41.60;;;;;;;0.11;83.42;98578.17;213834;1273;61288;-72
2024/01/18 16:38:24;;;;;;;83.00;47.90;;;;;;;0.09;83.29;98592.58;214009;1268;61309;-72
2024/01/18 16:43:17;;;;;;;73.00;42.50;;;;;;;0.07;83.30;98588.12;213941;1268;61283;-73
2024/01/18 16:48:10;;;;;;;116.40;69.50;;;;;;;0.05;83.39;98588.92;214073;1272;61329;-71
2024/01/18 16:53:03;;;;;;;88.10;49.70;;;;;;;0.04;83.33;98593.48;214069;1272;61379;-72
2024/01/18 16:57:56;;;;;;;95.10;53.90;;;;;;;0.01;83.24;98602.10;213924;1272;61296;-71
2024/01/18 17:02:49;;;;;;;95.70;57.00;;;;;;;-0.04;83.07;98605.58;213982;1272;61899;-71
2024/01/18 17:07:42;;;;;;;90.70;51.00;;;;;;;-0.06;83.16;98618.79;213942;1268;61278;-71
2024/01/18 17:12:35;;;;;;;84.70;48.90;;;;;;;-0.10;82.92;98632.16;213904;1272;61284;-72
2024/01/18 17:17:28;;;;;;;78.30;45.10;;;;;;;-0.11;83.29;98635.01;213910;1268;62032;-71
2024/01/18 17:22:21;;;;;;;77.20;46.20;;;;;;;-0.12;83.40;98649.29;213939;1268;61405;-71
2024/01/18 17:27:15;;;;;;;86.10;50.90;;;;;;;-0.13;83.21;98650.79;213963;1270;61298;-71
2024/01/18 17:32:08;;;;;;;87.70;47.90;;;;;;;-0.14;83.32;98657.94;214055;1272;61300;-72
2024/01/18 17:37:03;;;;;;;86.20;49.80;;;;;;;-0.17;83.21;98671.14;214002;1268;74495;-72
2024/01/18 17:41:56;;;;;;;86.60;50.50;;;;;;;-0.19;83.19;98677.52;213971;1268;71598;-72
2024/01/18 17:46:51;;;;;;;83.00;50.50;;;;;;;-0.21;83.30;98688.21;214189;1268;61404;-72
2024/01/18 17:51:49;;;;;;;89.00;50.00;;;;;;;-0.22;83.22;98690.58;214072;1268;65824;-72
2024/01/18 17:56:42;;;;;;;87.60;52.50;;;;;;;-0.24;83.21;98693.27;214090;1272;64013;-73
2024/01/18 18:01:35;;;;;;;89.60;50.70;;;;;;;-0.25;83.49;98702.42;213743;1268;72988;-72
2024/01/18 18:06:28;;;;;;;81.60;47.80;;;;;;;-0.26;83.46;98712.78;213876;1272;61310;-72
2024/01/18 18:11:21;;;;;;;75.20;48.20;;;;;;;-0.26;83.58;98716.18;213967;1272;61582;-74
2024/01/18 18:16:14;;;;;;;78.40;48.10;;;;;;;-0.27;83.36;98725.67;213993;1272;61290;-72
2024/01/18 18:21:07;;;;;;;78.00;46.30;;;;;;;-0.29;83.56;98740.09;213951;1272;61248;-72
2024/01/18 18:26:00;;;;;;;82.20;48.90;;;;;;;-0.31;83.68;98747.38;213985;1271;61821;-72
2024/01/18 18:31:00;;;;;;;83.50;51.00;;;;;;;-0.33;83.73;98758.02;213870;1272;71455;-72
2024/01/18 18:35:53;;;;;;;76.10;49.80;;;;;;;-0.34;84.02;98766.15;213975;1268;61389;-72
2024/01/18 18:40:46;;;;;;;86.30;50.00;;;;;;;-0.36;84.06;98778.36;213770;1271;61365;-72
2024/01/18 18:45:39;;;;;;;79.90;50.40;;;;;;;-0.39;84.19;98785.42;214043;1272;61380;-72
2024/01/18 18:50:31;;;;;;;86.70;52.00;;;;;;;-0.41;84.06;98792.02;213912;1270;61917;-71
2024/01/18 18:55:25;;;;;;;80.60;50.90;;;;;;;-0.44;84.19;98795.52;213914;1271;61368;-71
2024/01/18 19:00:18;;;;;;;81.20;52.30;;;;;;;-0.46;84.34;98802.28;214058;1272;61345;-71
2024/01/18 19:05:11;;;;;;;78.30;50.60;;;;;;;-0.47;84.38;98805.63;214020;1272;67071;-72
2024/01/18 19:10:05;;;;;;;72.50;44.80;;;;;;;-0.50;84.56;98815.91;214023;1268;61350;-72
2024/01/18 19:14:58;;;;;;;84.80;51.10;;;;;;;-0.52;84.68;98822.84;214081;1272;74365;-71
2024/01/18 19:19:51;;;;;;;85.30;49.90;;;;;;;-0.54;84.80;98820.20;214009;1272;61235;-72
2024/01/18 19:24:44;;;;;;;85.80;52.20;;;;;;;-0.55;84.84;98823.10;214124;1272;61291;-71
2024/01/18 19:29:37;;;;;;;94.70;54.00;;;;;;;-0.55;84.93;98828.02;214192;1271;66430;-72
2024/01/18 19:34:30;;;;;;;80.40;50.00;;;;;;;-0.56;85.12;98837.67;214100;1270;61364;-71
2024/01/18 19:39:22;;;;;;;86.70;48.90;;;;;;;-0.56;85.02;98853.67;214122;1272;61606;-71
2024/01/18 19:44:21;;;;;;;88.70;52.00;;;;;;;-0.59;85.16;98862.62;213947;1272;71221;-72
2024/01/18 19:49:14;;;;;;;82.60;50.40;;;;;;;-0.60;85.31;98870.77;213934;1271;61282;-71
2024/01/18 19:54:07;;;;;;;78.90;48.20;;;;;;;-0.60;85.39;98873.46;214020;1270;61364;-71
2024/01/18 19:59:00;;;;;;;59.00;35.90;;;;;;;-0.62;85.36;98876.98;214070;1270;61303;-71
2024/01/18 20:03:53;;;;;;;76.30;44.80;;;;;;;-0.67;85.43;98879.05;214108;1269;61653;-71
2024/01/18 20:08:45;;;;;;;81.30;51.70;;;;;;;-0.68;85.46;98886.48;214009;1269;61377;-71
2024/01/18 20:13:39;;;;;;;79.10;50.20;;;;;;;-0.67;85.63;98895.52;214055;1270;61217;-71
2024/01/18 20:18:31;;;;;;;87.80;53.20;;;;;;;-0.68;85.55;98895.48;214160;1272;61356;-71
2024/01/18 20:23:24;;;;;;;84.30;52.20;;;;;;;-0.68;85.70;98907.23;214048;1270;61313;-71
2024/01/18 20:28:17;;;;;;;75.80;46.20;;;;;;;-0.70;85.68;98907.68;214041;1270;61405;-71
2024/01/18 20:33:11;;;;;;;82.10;49.90;;;;;;;-0.72;85.99;98919.02;214013;1270;61243;-72
2024/01/18 20:38:04;;;;;;;74.60;45.80;;;;;;;-0.71;85.95;98953.95;213945;1268;61299;-71
2024/01/18 20:42:57;;;;;;;78.10;49.00;;;;;;;-0.72;85.88;98978.55;214019;1270;66808;-70
2024/01/18 20:47:50;;;;;;;81.00;47.40;;;;;;;-0.74;86.01;98989.54;213933;1270;61234;-71
2024/01/18 20:52:43;;;;;;;67.90;40.00;;;;;;;-0.77;85.98;99004.97;214012;1270;73614;-72
2024/01/18 20:57:37;;;;;;;78.20;45.70;;;;;;;-0.81;85.84;99009.43;214064;1269;61292;-71
2024/01/18 21:02:31;;;;;;;66.20;41.70;;;;;;;-0.83;85.79;99021.60;214006;1271;61400;-71
2024/01/18 21:07:24;;;;;;;75.40;44.40;;;;;;;-0.83;85.57;99038.45;214113;1269;67109;-72
2024/01/18 21:12:19;;;;;;;76.40;42.10;;;;;;;-0.85;85.72;99047.40;214131;1270;61352;-71
2024/01/18 21:17:12;;;;;;;73.10;44.20;;;;;;;-0.86;85.54;99053.64;214090;1272;75688;-72
2024/01/18 21:22:05;;;;;;;67.30;40.10;;;;;;;-0.87;85.49;99065.35;214021;1270;61298;-71
2024/01/18 21:26:59;;;;;;;70.20;44.80;;;;;;;-0.88;85.65;99077.88;213923;1270;61250;-71
2024/01/18 21:31:55;;;;;;;;;;;;;;;-0.91;85.69;99092.26;213985;1269;66122;-71
2024/01/18 21:36:48;;;;;;;69.10;39.80;;;;;;;-0.91;85.82;99098.20;214013;1270;61326;-71
2024/01/18 21:41:42;;;;;;;72.10;41.70;;;;;;;-0.91;85.65;99094.27;213986;1268;61360;-71
2024/01/18 21:46:35;;;;;;;67.00;41.30;;;;;;;-0.92;85.49;99107.51;214006;1271;72639;-72
2024/01/18 21:51:28;;;;;;;69.10;43.00;;;;;;;-0.94;85.57;99123.26;214044;1270;61302;-71
2024/01/18 21:56:21;;;;;;;70.10;43.40;;;;;;;-0.97;85.60;99136.95;213973;1268;65945;-72
2024/01/18 22:01:15;;;;;;;64.90;42.00;;;;;;;-0.99;85.56;99151.15;213909;1271;61260;-72
2024/01/18 22:06:07;;;;;;;72.50;41.90;;;;;;;-0.99;85.77;99152.17;213813;1270;73637;-71
2024/01/18 22:11:00;;;;;;;65.90;39.90;;;;;;;-1.00;85.60;99152.30;213742;1270;61390;-71
2024/01/18 22:15:55;;;;;;;69.80;43.50;;;;;;;-1.02;85.56;99160.39;213888;1268;61283;-71
2024/01/18 22:20:48;;;;;;;70.00;43.40;;;;;;;-1.03;85.59;99168.50;213826;1268;65562;-70
2024/01/18 22:25:42;;;;;;;71.10;42.60;;;;;;;-1.07;85.40;99180.25;213686;1268;61265;-71
2024/01/18 22:30:35;;;;;;;67.50;41.40;;;;;;;-1.11;85.44;99192.83;213914;1270;61343;-71
2024/01/18 22:35:28;;;;;;;73.20;41.50;;;;;;;-1.13;85.60;99195.81;213981;1268;71442;-71